createdAt,value
2022-11-05T00:01:30.259Z,80.40
2022-11-05T00:04:17.145Z,80.28
2022-11-05T00:07:04.769Z,79.94
2022-11-05T00:09:34.793Z,79.79
2022-11-05T00:12:25.203Z,80.00
2022-11-05T00:15:12.322Z,80.72
2022-11-05T00:17:41.425Z,80.54
2022-11-05T00:20:13.198Z,80.49
2022-11-05T00:22:59.894Z,80.83
2022-11-05T00:25:29.993Z,80.92
2022-11-05T00:28:02.337Z,80.32
2022-11-05T00:30:31.864Z,79.98
2022-11-05T00:33:02.885Z,79.68
2022-11-05T00:35:31.486Z,79.53
2022-11-05T00:38:00.244Z,79.48
2022-11-05T00:40:29.347Z,79.56
2022-11-05T00:43:16.055Z,79.93
2022-11-05T00:45:44.686Z,80.02
2022-11-05T00:48:31.765Z,80.04
2022-11-05T00:51:00.588Z,79.84
2022-11-05T00:53:29.356Z,79.72
2022-11-05T00:55:58.240Z,79.83
2022-11-05T00:58:28.906Z,80.13
2022-11-05T01:00:59.681Z,80.16
2022-11-05T01:03:30.654Z,80.20
2022-11-05T01:06:06.374Z,80.39
2022-11-05T01:08:35.117Z,80.04
2022-11-05T01:11:10.489Z,79.87
2022-11-05T01:13:40.193Z,79.66
2022-11-05T01:16:10.410Z,79.55
2022-11-05T01:18:39.509Z,79.77
2022-11-05T01:21:15.391Z,79.56
2022-11-05T01:23:44.092Z,79.28
2022-11-05T01:26:12.677Z,79.37
2022-11-05T01:28:41.388Z,78.75
2022-11-05T01:31:10.469Z,78.31
2022-11-05T01:33:39.255Z,78.06
2022-11-05T01:36:09.108Z,77.88
2022-11-05T01:38:37.998Z,77.76
2022-11-05T01:41:09.864Z,77.41
2022-11-05T01:43:49.501Z,77.48
2022-11-05T01:46:20.021Z,77.38
2022-11-05T01:48:52.253Z,77.24
2022-11-05T01:51:25.366Z,77.36
2022-11-05T01:53:59.490Z,77.45
2022-11-05T01:56:33.856Z,77.50
2022-11-05T01:59:07.013Z,77.61
2022-11-05T02:01:35.907Z,77.49
2022-11-05T02:04:08.863Z,77.68
2022-11-05T02:06:45.608Z,77.58
2022-11-05T02:09:18.994Z,77.36
2022-11-05T02:11:48.617Z,77.38
2022-11-05T02:14:17.939Z,77.44
2022-11-05T02:16:54.087Z,77.46
2022-11-05T02:19:48.885Z,77.35
2022-11-05T02:22:40.650Z,77.25
2022-11-05T02:25:33.520Z,77.34
2022-11-05T02:28:26.886Z,77.26
2022-11-05T02:31:03.717Z,77.29
2022-11-05T02:33:39.900Z,77.27
2022-11-05T02:36:22.270Z,77.10
2022-11-05T02:39:03.689Z,77.01
2022-11-05T02:41:40.469Z,77.17
2022-11-05T02:44:21.015Z,77.10
2022-11-05T02:46:57.836Z,77.10
2022-11-05T02:49:38.354Z,77.06
2022-11-05T02:52:14.174Z,77.22
2022-11-05T02:54:48.642Z,77.23
2022-11-05T02:57:21.234Z,77.36
2022-11-05T02:59:49.864Z,77.39
2022-11-05T03:02:18.848Z,77.36
2022-11-05T03:04:47.696Z,77.16
2022-11-05T03:07:32.735Z,77.46
2022-11-05T03:10:38.282Z,77.52
2022-11-05T03:13:17.161Z,77.16
2022-11-05T03:15:57.711Z,77.29
2022-11-05T03:18:34.522Z,77.51
2022-11-05T03:21:07.189Z,77.35
2022-11-05T03:23:46.164Z,77.36
2022-11-05T03:26:19.182Z,77.12
2022-11-05T03:28:52.162Z,77.32
2022-11-05T03:31:23.315Z,77.47
2022-11-05T03:33:55.092Z,77.53
2022-11-05T03:36:27.407Z,77.54
2022-11-05T03:39:01.045Z,77.49
2022-11-05T03:41:33.132Z,77.89
2022-11-05T03:44:06.224Z,77.86
2022-11-05T03:46:42.431Z,78.04
2022-11-05T03:49:17.892Z,77.92
2022-11-05T03:51:52.444Z,77.67
2022-11-05T03:54:21.569Z,77.94
2022-11-05T03:57:01.061Z,78.09
2022-11-05T03:59:31.268Z,78.08
2022-11-05T04:02:00.181Z,78.08
2022-11-05T04:04:28.949Z,77.85
2022-11-05T04:07:15.707Z,77.64
2022-11-05T04:10:02.421Z,77.48
2022-11-05T04:12:49.288Z,77.65
2022-11-05T04:15:18.142Z,77.69
2022-11-05T04:17:47.037Z,77.46
2022-11-05T04:20:34.351Z,77.24
2022-11-05T04:23:23.310Z,77.18
2022-11-05T04:25:52.102Z,77.39
2022-11-05T04:28:40.962Z,77.39
2022-11-05T04:31:18.912Z,77.36
2022-11-05T04:33:57.343Z,77.51
2022-11-05T04:36:35.429Z,77.23
2022-11-05T04:39:12.998Z,77.16
2022-11-05T04:41:51.654Z,77.07
2022-11-05T04:44:29.795Z,77.26
2022-11-05T04:46:58.582Z,77.21
2022-11-05T04:49:27.360Z,77.05
2022-11-05T04:51:56.728Z,76.94
2022-11-05T04:54:25.813Z,77.10
2022-11-05T04:56:54.789Z,77.52
2022-11-05T04:59:23.570Z,77.24
2022-11-05T05:01:53.620Z,76.99
2022-11-05T05:04:22.354Z,76.94
2022-11-05T05:06:51.334Z,76.79
2022-11-05T05:09:20.305Z,76.65
2022-11-05T05:11:49.143Z,76.54
2022-11-05T05:14:18.054Z,76.53
2022-11-05T05:16:46.715Z,76.26
2022-11-05T05:19:15.555Z,76.17
2022-11-05T05:21:44.373Z,76.39
2022-11-05T05:24:15.223Z,76.64
2022-11-05T05:26:45.835Z,76.75
2022-11-05T05:29:15.094Z,76.65
2022-11-05T05:31:44.746Z,76.60
2022-11-05T05:34:15.013Z,76.42
2022-11-05T05:36:43.831Z,76.44
2022-11-05T05:39:13.138Z,76.53
2022-11-05T05:41:41.993Z,76.75
2022-11-05T05:44:10.809Z,76.73
2022-11-05T05:46:39.613Z,76.65
2022-11-05T05:49:12.505Z,76.84
2022-11-05T05:51:41.519Z,77.03
2022-11-05T05:54:12.382Z,77.25
2022-11-05T05:56:42.693Z,77.22
2022-11-05T05:59:11.630Z,77.10
2022-11-05T06:01:40.913Z,76.88
2022-11-05T06:04:10.483Z,77.11
2022-11-05T06:06:39.745Z,77.55
2022-11-05T06:09:08.611Z,77.25
2022-11-05T06:11:37.243Z,76.94
2022-11-05T06:14:06.079Z,76.94
2022-11-05T06:16:35.542Z,77.31
2022-11-05T06:19:04.738Z,77.21
2022-11-05T06:21:33.682Z,77.25
2022-11-05T06:24:02.630Z,77.27
2022-11-05T06:26:31.877Z,77.49
2022-11-05T06:29:00.773Z,77.33
2022-11-05T06:31:29.625Z,77.08
2022-11-05T06:33:58.574Z,76.89
2022-11-05T06:36:27.952Z,76.93
2022-11-05T06:38:56.752Z,77.04
2022-11-05T06:41:25.624Z,76.80
2022-11-05T06:43:54.547Z,76.98
2022-11-05T06:46:23.246Z,76.65
2022-11-05T06:48:52.478Z,76.51
2022-11-05T06:51:21.579Z,76.33
2022-11-05T06:53:50.253Z,76.16
2022-11-05T06:56:18.989Z,76.27
2022-11-05T06:58:48.084Z,76.19
2022-11-05T07:01:17.034Z,76.21
2022-11-05T07:03:48.606Z,76.59
2022-11-05T07:06:17.675Z,76.86
2022-11-05T07:08:47.018Z,76.93
2022-11-05T07:11:16.035Z,76.80
2022-11-05T07:13:44.918Z,76.70
2022-11-05T07:16:13.816Z,76.77
2022-11-05T07:18:42.618Z,77.16
2022-11-05T07:21:11.394Z,77.50
2022-11-05T07:23:40.079Z,77.16
2022-11-05T07:26:08.826Z,76.84
2022-11-05T07:28:37.631Z,76.45
2022-11-05T07:31:06.899Z,76.53
2022-11-05T07:33:36.798Z,76.33
2022-11-05T07:36:06.842Z,75.87
2022-11-05T07:38:36.248Z,75.93
2022-11-05T07:41:05.403Z,75.58
2022-11-05T07:43:34.178Z,75.67
2022-11-05T07:46:03.068Z,75.87
2022-11-05T07:48:31.855Z,75.88
2022-11-05T07:51:00.790Z,75.96
2022-11-05T07:53:29.668Z,75.73
2022-11-05T07:55:58.647Z,75.70
2022-11-05T07:58:27.835Z,75.40
2022-11-05T08:00:58.193Z,75.65
2022-11-05T08:03:27.287Z,75.74
2022-11-05T08:05:56.356Z,76.10
2022-11-05T08:08:25.819Z,75.89
2022-11-05T08:10:54.561Z,77.04
2022-11-05T08:13:23.424Z,77.00
2022-11-05T08:15:52.197Z,77.49
2022-11-05T08:18:20.891Z,77.41
2022-11-05T08:20:49.861Z,77.37
2022-11-05T08:23:18.554Z,77.46
2022-11-05T08:25:47.178Z,77.77
2022-11-05T08:28:15.911Z,77.68
2022-11-05T08:30:48.527Z,77.60
2022-11-05T08:33:17.273Z,77.47
2022-11-05T08:35:46.082Z,77.29
2022-11-05T08:38:17.216Z,77.29
2022-11-05T08:40:53.172Z,77.29
2022-11-05T08:43:22.045Z,77.88
2022-11-05T08:45:51.080Z,78.03
2022-11-05T08:48:20.225Z,78.15
2022-11-05T08:50:49.740Z,78.26
2022-11-05T08:53:18.825Z,78.54
2022-11-05T08:55:49.674Z,78.46
2022-11-05T08:58:19.825Z,78.65
2022-11-05T09:00:50.355Z,78.59
2022-11-05T09:03:19.333Z,79.04
2022-11-05T09:05:48.066Z,79.49
2022-11-05T09:08:19.004Z,79.59
2022-11-05T09:10:49.360Z,80.02
2022-11-05T09:13:20.069Z,80.23
2022-11-05T09:15:49.789Z,80.40
2022-11-05T09:18:19.840Z,80.08
2022-11-05T09:20:48.789Z,80.11
2022-11-05T09:23:18.013Z,80.25
2022-11-05T09:25:46.901Z,80.34
2022-11-05T09:28:17.649Z,80.06
2022-11-05T09:30:47.939Z,79.86
2022-11-05T09:33:18.959Z,80.21
2022-11-05T09:35:48.140Z,80.65
2022-11-05T09:38:16.898Z,80.97
2022-11-05T09:40:52.973Z,81.22
2022-11-05T09:43:30.393Z,81.68
2022-11-05T09:46:08.416Z,81.05
2022-11-05T09:48:39.279Z,81.17
2022-11-05T09:51:10.252Z,80.97
2022-11-05T09:53:42.070Z,81.18
2022-11-05T09:56:21.098Z,80.42
2022-11-05T09:58:53.337Z,80.70
2022-11-05T10:01:26.704Z,80.92
2022-11-05T10:03:58.677Z,81.37
2022-11-05T10:06:28.664Z,81.41
2022-11-05T10:09:03.411Z,81.36
2022-11-05T10:11:34.065Z,81.48
2022-11-05T10:14:11.034Z,80.28
2022-11-05T10:16:43.498Z,80.25
2022-11-05T10:19:21.627Z,80.24
2022-11-05T10:22:05.949Z,80.08
2022-11-05T10:24:35.940Z,79.74
2022-11-05T10:27:06.541Z,79.66
2022-11-05T10:29:36.769Z,80.07
2022-11-05T10:32:06.892Z,80.46
2022-11-05T10:34:37.694Z,80.76
2022-11-05T10:37:06.371Z,80.95
2022-11-05T10:39:35.479Z,81.20
2022-11-05T10:42:31.945Z,81.62
2022-11-05T10:45:08.595Z,81.68
2022-11-05T10:47:48.911Z,81.80
2022-11-05T10:50:20.397Z,82.04
2022-11-05T10:52:57.648Z,81.96
2022-11-05T10:55:28.660Z,81.46
2022-11-05T10:58:08.899Z,81.50
2022-11-05T11:00:37.977Z,81.22
2022-11-05T11:03:28.089Z,81.06
2022-11-05T11:06:01.144Z,81.02
2022-11-05T11:08:31.128Z,81.11
2022-11-05T11:11:03.505Z,80.85
2022-11-05T11:13:50.206Z,80.87
2022-11-05T11:16:23.475Z,81.03
2022-11-05T11:18:56.091Z,81.35
2022-11-05T11:21:25.992Z,81.12
2022-11-05T11:24:00.367Z,80.87
2022-11-05T11:26:32.226Z,80.74
2022-11-05T11:29:05.818Z,80.30
2022-11-05T11:31:39.788Z,80.69
2022-11-05T11:34:16.318Z,80.65
2022-11-05T11:36:47.133Z,80.64
2022-11-05T11:39:19.664Z,80.58
2022-11-05T11:41:52.546Z,80.43
2022-11-05T11:44:26.762Z,80.42
2022-11-05T11:46:57.728Z,81.03
2022-11-05T11:49:40.207Z,80.69
2022-11-05T11:52:13.626Z,80.99
2022-11-05T11:54:42.827Z,80.34
2022-11-05T11:57:24.930Z,80.02
2022-11-05T12:00:08.305Z,79.78
2022-11-05T12:03:01.583Z,79.03
2022-11-05T12:05:41.574Z,79.02
2022-11-05T12:08:37.151Z,78.78
2022-11-05T12:11:13.106Z,79.12
2022-11-05T12:14:03.996Z,78.60
2022-11-05T12:17:06.933Z,78.45
2022-11-05T12:19:52.520Z,78.09
2022-11-05T12:22:30.716Z,77.53
2022-11-05T12:25:17.835Z,77.57
2022-11-05T12:27:59.436Z,77.88
2022-11-05T12:30:35.703Z,78.19
2022-11-05T12:33:24.806Z,78.30
2022-11-05T12:36:05.568Z,79.09
2022-11-05T12:39:04.741Z,79.36
2022-11-05T12:41:39.293Z,79.12
2022-11-05T12:44:33.543Z,79.50
2022-11-05T12:47:17.064Z,79.24
2022-11-05T12:49:59.975Z,79.04
2022-11-05T12:52:52.263Z,79.35
2022-11-05T12:55:24.463Z,79.02
2022-11-05T12:57:58.757Z,79.12
2022-11-05T13:00:30.723Z,79.32
2022-11-05T13:03:19.521Z,79.89
2022-11-05T13:05:53.996Z,79.47
2022-11-05T13:08:26.407Z,79.27
2022-11-05T13:11:00.141Z,79.21
2022-11-05T13:13:37.858Z,79.73
2022-11-05T13:16:13.245Z,80.04
2022-11-05T13:18:47.208Z,80.35
2022-11-05T13:21:17.570Z,79.98
2022-11-05T13:23:50.842Z,79.48
2022-11-05T13:26:25.172Z,79.23
2022-11-05T13:28:59.362Z,79.87
2022-11-05T13:31:33.609Z,79.43
2022-11-05T13:34:06.499Z,79.80
2022-11-05T13:37:05.727Z,80.21
2022-11-05T13:39:37.837Z,79.98
2022-11-05T13:42:27.094Z,79.66
2022-11-05T13:45:13.676Z,80.15
2022-11-05T13:48:10.611Z,80.30
2022-11-05T13:51:16.312Z,80.81
2022-11-05T13:54:19.139Z,80.22
2022-11-05T13:57:04.764Z,79.97
2022-11-05T13:59:54.925Z,79.76
2022-11-05T14:02:26.935Z,79.59
2022-11-05T14:05:00.988Z,80.07
2022-11-05T14:07:33.223Z,80.22
2022-11-05T14:10:15.471Z,80.49
2022-11-05T14:12:50.714Z,80.00
2022-11-05T14:15:24.102Z,80.42
2022-11-05T14:17:58.848Z,80.66
2022-11-05T14:20:34.311Z,80.41
2022-11-05T14:23:38.620Z,79.99
2022-11-05T14:26:22.502Z,80.40
2022-11-05T14:29:13.292Z,79.99
2022-11-05T14:32:08.368Z,80.08
2022-11-05T14:34:49.227Z,80.18
2022-11-05T14:37:34.215Z,80.37
2022-11-05T14:40:35.852Z,80.55
2022-11-05T14:43:08.325Z,80.05
2022-11-05T14:45:39.489Z,80.33
2022-11-05T14:48:27.902Z,80.62
2022-11-05T14:50:57.323Z,80.78
2022-11-05T14:53:32.320Z,80.84
2022-11-05T14:56:05.422Z,81.06
2022-11-05T14:58:39.230Z,80.67
2022-11-05T15:01:09.669Z,80.34
2022-11-05T15:04:02.794Z,80.59
2022-11-05T15:06:34.989Z,80.44
2022-11-05T15:09:17.328Z,80.84
2022-11-05T15:12:02.541Z,80.78
2022-11-05T15:14:34.763Z,80.74
2022-11-05T15:17:18.088Z,80.93
2022-11-05T15:19:48.420Z,80.64
2022-11-05T15:22:34.843Z,81.07
2022-11-05T15:25:05.083Z,81.10
2022-11-05T15:27:55.325Z,81.28
2022-11-05T15:30:25.747Z,81.11
2022-11-05T15:32:54.790Z,81.33
2022-11-05T15:35:26.980Z,80.34
2022-11-05T15:38:02.264Z,80.42
2022-11-05T15:40:33.892Z,80.83
2022-11-05T15:43:19.068Z,80.77
2022-11-05T15:46:01.313Z,80.68
2022-11-05T15:48:30.429Z,80.69
2022-11-05T15:50:59.490Z,80.52
2022-11-05T15:56:51.539Z,80.95
2022-11-05T15:59:21.887Z,80.41
2022-11-05T16:01:54.199Z,80.21
2022-11-05T16:04:25.638Z,80.53
2022-11-05T16:06:57.749Z,80.10
2022-11-05T16:09:28.565Z,80.27
2022-11-05T16:12:26.139Z,80.85
2022-11-05T16:15:05.298Z,81.05
2022-11-05T16:17:47.388Z,81.03
2022-11-05T16:20:23.674Z,81.45
2022-11-05T16:22:55.549Z,81.38
2022-11-05T16:25:29.612Z,81.40
2022-11-05T16:28:00.113Z,81.47
2022-11-05T16:30:29.735Z,81.33
2022-11-05T16:33:07.232Z,80.95
2022-11-05T16:35:48.278Z,81.09
2022-11-05T16:38:18.598Z,80.63
2022-11-05T16:40:47.450Z,80.89
2022-11-05T16:43:21.063Z,81.33
2022-11-05T16:45:50.513Z,81.48
2022-11-05T16:48:19.169Z,81.04
2022-11-05T16:50:48.399Z,81.25
2022-11-05T16:53:19.408Z,81.60
2022-11-05T16:55:49.007Z,81.45
2022-11-05T16:58:21.522Z,81.08
2022-11-05T17:00:52.705Z,81.18
2022-11-05T17:03:22.579Z,81.06
2022-11-05T17:05:51.865Z,80.69
2022-11-05T17:08:22.132Z,80.18
2022-11-05T17:10:51.441Z,80.27
2022-11-05T17:13:21.347Z,80.35
2022-11-05T17:15:51.596Z,79.92
2022-11-05T17:18:21.346Z,79.42
2022-11-05T17:20:52.418Z,79.51
2022-11-05T17:23:28.093Z,79.93
2022-11-05T17:26:02.632Z,80.06
2022-11-05T17:28:32.132Z,80.26
2022-11-05T17:31:02.345Z,80.08
2022-11-05T17:33:32.416Z,79.50
2022-11-05T17:36:05.015Z,79.05
2022-11-05T17:38:34.393Z,79.70
2022-11-05T17:41:09.938Z,79.92
2022-11-05T17:43:39.340Z,80.17
2022-11-05T17:46:10.995Z,79.58
2022-11-05T17:48:41.056Z,79.33
2022-11-05T17:51:11.703Z,79.54
2022-11-05T17:53:41.647Z,79.59
2022-11-05T17:56:12.324Z,79.84
2022-11-05T17:58:41.510Z,79.39
2022-11-05T18:01:25.588Z,78.95
2022-11-05T18:03:55.308Z,79.18
2022-11-05T18:06:25.409Z,79.24
2022-11-05T18:08:54.907Z,78.95
2022-11-05T18:11:24.272Z,79.39
2022-11-05T18:13:53.601Z,79.59
2022-11-05T18:16:23.085Z,79.37
2022-11-05T18:18:52.829Z,79.27
2022-11-05T18:21:22.589Z,79.03
2022-11-05T18:23:52.513Z,78.81
2022-11-05T18:26:21.640Z,78.61
2022-11-05T18:28:50.883Z,78.36
2022-11-05T18:31:22.590Z,78.15
2022-11-05T18:33:55.472Z,78.21
2022-11-05T18:36:26.529Z,78.13
2022-11-05T18:38:57.460Z,78.05
2022-11-05T18:41:26.852Z,77.69
2022-11-05T18:44:00.321Z,77.78
2022-11-05T18:46:56.613Z,77.80
2022-11-05T18:49:19.953Z,77.90
2022-11-05T18:51:49.317Z,77.91
2022-11-05T18:54:18.950Z,77.56
2022-11-05T18:56:48.173Z,77.47
2022-11-05T18:59:36.828Z,77.76
2022-11-05T19:02:08.326Z,77.78
2022-11-05T19:04:38.547Z,78.08
2022-11-05T19:07:08.699Z,78.53
2022-11-05T19:09:40.276Z,78.63
2022-11-05T19:12:09.814Z,78.29
2022-11-05T19:14:38.709Z,78.02
2022-11-05T19:17:09.498Z,78.36
2022-11-05T19:19:39.135Z,78.14
2022-11-05T19:22:08.245Z,78.34
2022-11-05T19:24:37.483Z,78.27
2022-11-05T19:27:07.342Z,78.66
2022-11-05T19:29:36.727Z,78.97
2022-11-05T19:32:06.701Z,78.38
2022-11-05T19:34:36.030Z,78.34
2022-11-05T19:37:07.283Z,77.98
2022-11-05T19:39:36.812Z,77.92
2022-11-05T19:42:08.507Z,77.51
2022-11-05T19:44:38.335Z,78.06
2022-11-05T19:47:07.075Z,77.82
2022-11-05T19:49:36.637Z,77.96
2022-11-05T19:52:06.679Z,77.39
2022-11-05T19:54:36.007Z,77.20
2022-11-05T19:57:06.544Z,76.99
2022-11-05T19:59:36.122Z,77.09
2022-11-05T20:02:06.848Z,77.39
2022-11-05T20:04:38.153Z,77.42
2022-11-05T20:07:07.554Z,77.46
2022-11-05T20:09:36.793Z,77.58
2022-11-05T20:12:06.479Z,77.84
2022-11-05T20:14:36.019Z,77.84
2022-11-05T20:17:05.860Z,77.78
2022-11-05T20:19:35.657Z,77.30
2022-11-05T20:22:05.041Z,77.35
2022-11-05T20:24:34.389Z,77.28
2022-11-05T20:27:03.312Z,77.27
2022-11-05T20:29:35.587Z,77.42
2022-11-05T20:32:06.559Z,78.01
2022-11-05T20:34:36.223Z,77.78
2022-11-05T20:37:05.526Z,76.98
2022-11-05T20:39:34.631Z,77.12
2022-11-05T20:42:04.053Z,77.11
2022-11-05T20:44:32.914Z,77.61
2022-11-05T20:47:02.435Z,78.18
2022-11-05T20:49:31.619Z,78.05
2022-11-05T20:52:00.860Z,78.40
2022-11-05T20:54:30.265Z,78.00
2022-11-05T20:57:00.036Z,77.54
2022-11-05T20:59:29.478Z,77.63
2022-11-05T21:01:59.081Z,77.57
2022-11-05T21:04:29.367Z,77.76
2022-11-05T21:06:59.087Z,77.28
2022-11-05T21:09:29.453Z,77.19
2022-11-05T21:12:11.385Z,77.07
2022-11-05T21:14:43.307Z,76.72
2022-11-05T21:17:15.069Z,76.26
2022-11-05T21:19:44.230Z,76.21
2022-11-05T21:22:15.716Z,76.16
2022-11-05T21:24:45.761Z,76.14
2022-11-05T21:27:15.093Z,76.31
2022-11-05T21:29:44.818Z,76.52
2022-11-05T21:32:14.188Z,76.70
2022-11-05T21:34:43.684Z,76.38
2022-11-05T21:37:13.193Z,76.76
2022-11-05T21:39:42.537Z,76.83
2022-11-05T21:42:12.282Z,77.15
2022-11-05T21:44:41.554Z,77.33
2022-11-05T21:47:11.152Z,77.24
2022-11-05T21:49:40.360Z,76.89
2022-11-05T21:52:30.770Z,77.00
2022-11-05T21:55:17.946Z,76.97
2022-11-05T21:58:04.710Z,77.10
2022-11-05T22:00:34.500Z,76.82
2022-11-05T22:03:04.123Z,76.82
2022-11-05T22:05:33.585Z,76.77
2022-11-05T22:08:03.188Z,76.68
2022-11-05T22:10:32.481Z,76.97
2022-11-05T22:13:02.296Z,76.98
2022-11-05T22:15:30.980Z,77.06
2022-11-05T22:17:59.849Z,77.03
2022-11-05T22:20:29.035Z,77.31
2022-11-05T22:22:57.816Z,77.42
2022-11-05T22:25:26.621Z,77.19
2022-11-05T22:27:55.373Z,76.58
2022-11-05T22:30:24.158Z,76.84
2022-11-05T22:32:53.094Z,77.30
2022-11-05T22:35:21.865Z,77.41
2022-11-05T22:37:50.823Z,77.11
2022-11-05T22:40:23.714Z,77.23
2022-11-05T22:42:52.996Z,77.34
2022-11-05T22:45:22.090Z,77.42
2022-11-05T22:47:50.808Z,77.04
2022-11-05T22:50:19.725Z,76.94
2022-11-05T22:52:49.287Z,77.45
2022-11-05T22:55:18.278Z,77.36
2022-11-05T22:57:47.244Z,77.40
2022-11-05T23:00:18.775Z,77.80
2022-11-05T23:02:47.891Z,77.79
2022-11-05T23:05:16.952Z,77.29
2022-11-05T23:08:03.714Z,77.04
2022-11-05T23:10:51.164Z,77.21
2022-11-05T23:13:19.867Z,77.24
2022-11-05T23:16:06.581Z,77.03
2022-11-05T23:18:53.147Z,76.50
2022-11-05T23:21:40.025Z,76.49
2022-11-05T23:24:09.160Z,76.46
2022-11-05T23:26:51.646Z,76.55
2022-11-05T23:29:23.373Z,76.88
2022-11-05T23:32:11.296Z,77.22
2022-11-05T23:34:40.729Z,76.71
2022-11-05T23:37:27.590Z,76.92
2022-11-05T23:39:56.377Z,77.02
2022-11-05T23:42:43.185Z,77.06
2022-11-05T23:45:45.311Z,77.24
2022-11-05T23:48:19.256Z,77.67
2022-11-05T23:50:52.087Z,77.46
2022-11-05T23:53:20.816Z,77.46
2022-11-05T23:55:49.903Z,77.12
2022-11-05T23:58:18.968Z,76.83
